createdAt,value
2023-03-11T00:02:53.226Z,1.60
2023-03-11T00:05:56.081Z,1.35
2023-03-11T00:08:58.489Z,1.50
2023-03-11T00:12:01.775Z,1.40
2023-03-11T00:15:04.433Z,1.20
2023-03-11T00:18:07.077Z,1.20
2023-03-11T00:21:16.577Z,1.30
2023-03-11T00:24:19.146Z,1.20
2023-03-11T00:27:21.564Z,1.23
2023-03-11T00:30:25.417Z,1.57
2023-03-11T00:33:28.441Z,1.42
2023-03-11T00:36:33.737Z,1.27
2023-03-11T00:39:38.186Z,1.27
2023-03-11T00:42:40.630Z,1.33
2023-03-11T00:45:43.135Z,1.20
2023-03-11T00:48:45.664Z,1.50
2023-03-11T00:51:48.079Z,1.45
2023-03-11T00:54:50.963Z,1.40
2023-03-11T00:57:55.097Z,1.50
2023-03-11T01:00:58.340Z,1.00
2023-03-11T01:04:00.757Z,1.30
2023-03-11T01:07:03.689Z,1.25
2023-03-11T01:10:08.687Z,1.50
2023-03-11T01:13:11.138Z,1.30
2023-03-11T01:16:13.594Z,1.10
2023-03-11T01:19:16.420Z,1.20
2023-03-11T01:22:18.777Z,1.40
2023-03-11T01:25:23.123Z,1.48
2023-03-11T01:28:26.153Z,1.00
2023-03-11T01:31:28.493Z,1.40
2023-03-11T01:34:30.910Z,1.15
2023-03-11T01:37:34.188Z,1.17
2023-03-11T01:40:39.322Z,0.90
2023-03-11T01:43:44.767Z,1.33
2023-03-11T01:47:02.384Z,1.40
2023-03-11T01:50:11.796Z,1.23
2023-03-11T01:53:15.430Z,1.10
2023-03-11T01:56:18.350Z,1.35
2023-03-11T01:59:25.726Z,1.10
2023-03-11T02:02:40.927Z,1.60
2023-03-11T02:05:43.441Z,1.20
2023-03-11T02:08:46.518Z,1.23
2023-03-11T02:11:51.066Z,1.05
2023-03-11T02:14:54.679Z,1.17
2023-03-11T02:17:57.222Z,1.10
2023-03-11T02:21:24.783Z,1.40
2023-03-11T02:24:47.167Z,1.05
2023-03-11T02:27:51.792Z,1.00
2023-03-11T02:30:56.120Z,1.23
2023-03-11T02:34:00.127Z,0.93
2023-03-11T02:37:11.914Z,1.05
2023-03-11T02:40:23.130Z,1.13
2023-03-11T02:43:35.229Z,0.90
2023-03-11T02:46:39.272Z,1.00
2023-03-11T02:49:42.054Z,0.83
2023-03-11T02:52:44.487Z,0.85
2023-03-11T02:55:46.907Z,1.00
2023-03-11T02:58:49.442Z,0.95
2023-03-11T03:01:52.347Z,1.13
2023-03-11T03:04:55.023Z,1.40
2023-03-11T03:07:57.914Z,1.15
2023-03-11T03:11:00.350Z,0.98
2023-03-11T03:14:02.711Z,0.95
2023-03-11T03:17:05.543Z,1.10
2023-03-11T03:20:11.500Z,1.00
2023-03-11T03:23:16.516Z,1.20
2023-03-11T03:26:19.022Z,1.00
2023-03-11T03:29:24.398Z,1.17
2023-03-11T03:32:27.500Z,1.10
2023-03-11T03:35:30.727Z,1.03
2023-03-11T03:38:40.648Z,1.10
2023-03-11T03:41:43.133Z,0.93
2023-03-11T03:44:46.171Z,1.20
2023-03-11T03:47:54.592Z,0.80
2023-03-11T03:51:07.653Z,0.90
2023-03-11T03:54:11.625Z,1.10
2023-03-11T03:57:14.141Z,0.93
2023-03-11T04:00:21.093Z,1.08
2023-03-11T04:03:30.999Z,0.90
2023-03-11T04:06:40.017Z,0.77
2023-03-11T04:09:43.990Z,0.90
2023-03-11T04:12:47.828Z,0.77
2023-03-11T04:15:50.339Z,1.08
2023-03-11T04:18:52.873Z,0.80
2023-03-11T04:21:56.546Z,0.70
2023-03-11T04:25:00.599Z,1.02
2023-03-11T04:28:03.444Z,0.93
2023-03-11T04:31:11.431Z,0.80
2023-03-11T04:34:14.170Z,0.90
2023-03-11T04:37:17.133Z,0.97
2023-03-11T04:40:20.090Z,0.85
2023-03-11T04:43:22.870Z,0.65
2023-03-11T04:46:25.455Z,0.90
2023-03-11T04:49:27.880Z,0.90
2023-03-11T04:52:33.500Z,0.83
2023-03-11T04:55:37.052Z,0.80
2023-03-11T04:58:44.726Z,0.80
2023-03-11T05:01:47.237Z,0.90
2023-03-11T05:04:49.788Z,0.70
2023-03-11T05:07:52.288Z,1.00
2023-03-11T05:10:54.979Z,1.00
2023-03-11T05:13:58.543Z,0.93
2023-03-11T05:17:01.324Z,0.90
2023-03-11T05:20:07.573Z,0.80
2023-03-11T05:23:10.678Z,0.93
2023-03-11T05:26:14.804Z,0.88
2023-03-11T05:29:19.541Z,0.80
2023-03-11T05:32:22.801Z,0.90
2023-03-11T05:35:26.407Z,0.90
2023-03-11T05:38:28.950Z,1.10
2023-03-11T05:41:31.491Z,0.70
2023-03-11T05:44:34.351Z,0.93
2023-03-11T05:47:37.451Z,0.70
2023-03-11T05:50:40.863Z,0.80
2023-03-11T05:53:48.701Z,0.90
2023-03-11T05:56:56.246Z,0.90
2023-03-11T05:59:59.464Z,0.80
2023-03-11T06:03:01.825Z,0.90
2023-03-11T06:06:05.668Z,0.70
2023-03-11T06:09:12.476Z,0.80
2023-03-11T06:12:15.033Z,0.70
2023-03-11T06:15:40.138Z,0.80
2023-03-11T06:18:42.638Z,0.60
2023-03-11T06:21:45.785Z,0.60
2023-03-11T06:24:48.396Z,0.70
2023-03-11T06:27:52.498Z,0.80
2023-03-11T06:30:56.878Z,0.60
2023-03-11T06:33:59.510Z,0.70
2023-03-11T06:37:02.561Z,0.50
2023-03-11T06:40:08.006Z,0.80
2023-03-11T06:43:10.613Z,0.88
2023-03-11T06:46:21.210Z,1.10
2023-03-11T06:49:23.919Z,0.93
2023-03-11T06:52:26.669Z,0.80
2023-03-11T06:55:31.930Z,0.70
2023-03-11T06:58:36.937Z,0.80
2023-03-11T07:01:39.677Z,0.90
2023-03-11T07:04:43.472Z,0.80
2023-03-11T07:07:45.956Z,0.97
2023-03-11T07:11:03.818Z,0.90
2023-03-11T07:14:06.777Z,0.80
2023-03-11T07:17:12.582Z,0.70
2023-03-11T07:20:23.429Z,0.90
2023-03-11T07:23:25.792Z,0.90
2023-03-11T07:26:30.145Z,0.80
2023-03-11T07:29:32.576Z,0.90
2023-03-11T07:32:34.959Z,0.80
2023-03-11T07:35:37.337Z,0.70
2023-03-11T07:38:41.939Z,0.80
2023-03-11T07:41:44.882Z,0.80
2023-03-11T07:44:51.240Z,0.80
2023-03-11T07:47:53.596Z,0.70
2023-03-11T07:51:07.652Z,0.60
2023-03-11T07:54:11.135Z,0.77
2023-03-11T07:57:17.116Z,0.70
2023-03-11T08:00:19.938Z,0.80
2023-03-11T08:03:23.305Z,0.60
2023-03-11T08:06:29.192Z,0.70
2023-03-11T08:09:31.526Z,0.80
2023-03-11T08:12:33.926Z,0.83
2023-03-11T08:15:37.349Z,0.70
2023-03-11T08:18:39.928Z,0.60
2023-03-11T08:21:42.337Z,0.75
2023-03-11T08:24:44.684Z,0.50
2023-03-11T08:27:47.026Z,0.70
2023-03-11T08:30:49.398Z,0.80
2023-03-11T08:33:54.084Z,0.63
2023-03-11T08:36:56.642Z,0.70
2023-03-11T08:39:58.975Z,0.87
2023-03-11T08:43:01.335Z,0.60
2023-03-11T08:46:06.800Z,0.75
2023-03-11T08:49:09.982Z,0.60
2023-03-11T08:52:12.333Z,0.75
2023-03-11T08:55:17.678Z,0.50
2023-03-11T08:58:20.333Z,0.60
2023-03-11T09:01:23.708Z,0.60
2023-03-11T09:04:26.257Z,0.60
2023-03-11T09:07:28.587Z,0.40
2023-03-11T09:10:30.891Z,0.80
2023-03-11T09:13:33.425Z,0.53
2023-03-11T09:16:35.856Z,0.60
2023-03-11T09:19:38.613Z,0.70
2023-03-11T09:22:40.987Z,1.08
2023-03-11T09:25:43.337Z,0.70
2023-03-11T09:28:49.212Z,0.70
2023-03-11T09:31:51.780Z,0.60
2023-03-11T09:34:54.178Z,0.60
2023-03-11T09:37:56.536Z,0.57
2023-03-11T09:41:08.465Z,0.60
2023-03-11T09:44:19.137Z,0.63
2023-03-11T09:47:32.544Z,0.50
2023-03-11T09:50:50.037Z,0.60
2023-03-11T09:53:56.753Z,0.60
2023-03-11T09:57:00.156Z,0.60
2023-03-11T10:00:05.352Z,0.77
2023-03-11T10:03:25.648Z,0.60
2023-03-11T10:06:31.391Z,0.82
2023-03-11T10:09:39.562Z,0.68
2023-03-11T10:12:55.547Z,0.60
2023-03-11T10:16:18.465Z,0.70
2023-03-11T10:19:32.928Z,0.60
2023-03-11T10:22:53.814Z,0.93
2023-03-11T10:26:15.617Z,1.08
2023-03-11T10:29:23.204Z,0.70
2023-03-11T10:32:30.829Z,0.60
2023-03-11T10:35:41.435Z,0.47
2023-03-11T10:38:48.611Z,0.77
2023-03-11T10:41:57.397Z,0.43
2023-03-11T10:44:59.974Z,0.50
2023-03-11T10:48:02.264Z,0.60
2023-03-11T10:51:14.844Z,0.50
2023-03-11T10:54:25.383Z,0.70
2023-03-11T10:57:33.205Z,1.23
2023-03-11T11:00:35.558Z,0.60
2023-03-11T11:03:42.330Z,0.53
2023-03-11T11:06:44.696Z,0.35
2023-03-11T11:09:47.101Z,0.63
2023-03-11T11:13:08.226Z,0.60
2023-03-11T11:16:16.679Z,0.70
2023-03-11T11:19:19.849Z,0.60
2023-03-11T11:22:23.042Z,0.80
2023-03-11T11:25:36.834Z,0.75
2023-03-11T11:28:39.150Z,0.65
2023-03-11T11:31:46.407Z,0.70
2023-03-11T11:34:58.188Z,0.60
2023-03-11T11:38:02.155Z,0.43
2023-03-11T11:41:05.981Z,0.50
2023-03-11T11:44:12.655Z,0.57
2023-03-11T11:47:28.150Z,0.60
2023-03-11T11:50:44.517Z,0.60
2023-03-11T11:54:00.567Z,0.40
2023-03-11T11:57:11.701Z,0.43
2023-03-11T12:00:25.854Z,0.50
2023-03-11T12:03:33.862Z,0.53
2023-03-11T12:06:50.712Z,0.50
2023-03-11T12:10:23.874Z,0.63
2023-03-11T12:13:47.897Z,0.50
2023-03-11T12:17:03.915Z,0.50
2023-03-11T12:20:15.435Z,0.60
2023-03-11T12:23:20.821Z,0.57
2023-03-11T12:26:24.318Z,0.50
2023-03-11T12:29:32.553Z,0.60
2023-03-11T12:32:38.263Z,0.40
2023-03-11T12:35:49.016Z,0.80
2023-03-11T12:38:52.327Z,0.70
2023-03-11T12:42:17.685Z,0.70
2023-03-11T12:45:50.234Z,0.60
2023-03-11T12:49:12.130Z,0.68
2023-03-11T12:52:14.406Z,0.80
2023-03-11T12:55:16.704Z,0.50
2023-03-11T12:59:00.722Z,0.65
2023-03-11T13:02:57.144Z,0.77
2023-03-11T13:06:11.563Z,0.70
2023-03-11T13:09:15.925Z,0.60
2023-03-11T13:12:42.767Z,0.50
2023-03-11T13:15:45.220Z,0.40
2023-03-11T13:18:49.138Z,0.65
2023-03-11T13:21:51.806Z,0.82
2023-03-11T13:24:54.186Z,0.50
2023-03-11T13:28:06.773Z,0.50
2023-03-11T13:31:33.664Z,0.60
2023-03-11T13:34:41.810Z,0.73
2023-03-11T13:38:23.823Z,0.40
2023-03-11T13:41:35.403Z,0.60
2023-03-11T13:44:40.027Z,0.50
2023-03-11T13:47:45.932Z,0.60
2023-03-11T13:50:55.261Z,0.63
2023-03-11T13:54:31.842Z,0.60
2023-03-11T13:57:36.255Z,0.70
2023-03-11T14:00:47.589Z,0.80
2023-03-11T14:03:50.295Z,0.70
2023-03-11T14:06:52.946Z,0.88
2023-03-11T14:10:22.308Z,0.50
2023-03-11T14:13:27.285Z,0.90
2023-03-11T14:16:35.188Z,0.67
2023-03-11T14:19:37.642Z,1.15
2023-03-11T14:22:45.001Z,2.00
2023-03-11T14:25:47.328Z,1.42
2023-03-11T14:28:52.408Z,1.00
2023-03-11T14:31:54.880Z,0.83
2023-03-11T14:34:58.106Z,0.65
2023-03-11T14:38:00.863Z,0.80
2023-03-11T14:41:05.535Z,0.60
2023-03-11T14:44:08.504Z,0.60
2023-03-11T14:47:23.682Z,0.60
2023-03-11T14:50:29.026Z,0.85
2023-03-11T14:53:50.560Z,0.98
2023-03-11T14:57:01.975Z,0.70
2023-03-11T15:00:08.428Z,0.70
2023-03-11T15:03:19.803Z,0.50
2023-03-11T15:06:27.169Z,0.80
2023-03-11T15:09:29.974Z,0.60
2023-03-11T15:12:35.300Z,0.82
2023-03-11T15:15:37.649Z,0.70
2023-03-11T15:18:42.115Z,0.70
2023-03-11T15:21:49.010Z,0.63
2023-03-11T15:24:57.426Z,0.85
2023-03-11T15:28:25.309Z,0.70
2023-03-11T15:31:32.160Z,0.70
2023-03-11T15:34:35.385Z,0.50
2023-03-11T15:37:39.492Z,0.80
2023-03-11T15:40:54.097Z,0.82
2023-03-11T15:44:01.976Z,0.80
2023-03-11T15:47:04.425Z,0.77
2023-03-11T15:50:40.051Z,0.90
2023-03-11T15:53:45.630Z,0.60
2023-03-11T15:56:48.001Z,0.90
2023-03-11T15:59:51.131Z,0.70
2023-03-11T16:02:54.738Z,0.73
2023-03-11T16:05:57.183Z,0.60
2023-03-11T16:08:59.588Z,0.60
2023-03-11T16:12:02.670Z,0.70
2023-03-11T16:15:06.715Z,1.00
2023-03-11T16:18:10.079Z,0.60
2023-03-11T16:21:17.990Z,1.00
2023-03-11T16:24:23.294Z,0.55
2023-03-11T16:27:25.872Z,0.70
2023-03-11T16:30:30.074Z,0.70
2023-03-11T16:33:33.844Z,0.70
2023-03-11T16:36:36.278Z,0.60
2023-03-11T16:39:38.837Z,0.80
2023-03-11T16:42:41.453Z,0.60
2023-03-11T16:45:43.913Z,0.80
2023-03-11T16:48:46.558Z,0.77
2023-03-11T16:51:49.003Z,0.67
2023-03-11T16:54:51.427Z,0.70
2023-03-11T16:57:54.861Z,0.60
2023-03-11T17:00:57.234Z,0.60
2023-03-11T17:03:59.677Z,0.60
2023-03-11T17:07:02.182Z,0.60
2023-03-11T17:10:05.230Z,0.60
2023-03-11T17:13:07.911Z,0.60
2023-03-11T17:16:10.519Z,0.80
2023-03-11T17:19:13.532Z,0.60
2023-03-11T17:22:16.180Z,0.40
2023-03-11T17:25:19.079Z,0.43
2023-03-11T17:28:21.432Z,0.60
2023-03-11T17:31:24.131Z,0.60
2023-03-11T17:34:26.766Z,0.60
2023-03-11T17:37:29.300Z,0.70
2023-03-11T17:40:32.821Z,0.52
2023-03-11T17:43:35.463Z,0.50
2023-03-11T17:46:40.142Z,0.60
2023-03-11T17:49:42.585Z,0.60
2023-03-11T17:52:46.863Z,0.40
2023-03-11T17:55:49.240Z,0.80
2023-03-11T17:58:52.134Z,0.63
2023-03-11T18:01:54.623Z,0.60
2023-03-11T18:04:57.199Z,0.50
2023-03-11T18:07:59.815Z,0.57
2023-03-11T18:11:05.305Z,0.70
2023-03-11T18:14:07.805Z,0.60
2023-03-11T18:17:11.360Z,0.50
2023-03-11T18:20:14.760Z,0.40
2023-03-11T18:23:17.200Z,0.60
2023-03-11T18:26:20.119Z,0.70
2023-03-11T18:29:24.309Z,0.65
2023-03-11T18:32:27.007Z,0.50
2023-03-11T18:35:29.599Z,0.60
2023-03-11T18:38:32.146Z,0.50
2023-03-11T18:41:35.519Z,0.55
2023-03-11T18:44:38.869Z,0.65
2023-03-11T18:47:41.423Z,0.63
2023-03-11T18:50:43.828Z,0.50
2023-03-11T18:53:46.318Z,0.73
2023-03-11T18:56:49.842Z,0.60
2023-03-11T18:59:52.486Z,0.40
2023-03-11T19:02:55.033Z,0.60
2023-03-11T19:05:57.567Z,0.60
2023-03-11T19:09:00.119Z,0.63
2023-03-11T19:12:02.758Z,0.60
2023-03-11T19:15:05.883Z,0.50
2023-03-11T19:18:09.072Z,0.60
2023-03-11T19:21:12.824Z,0.67
2023-03-11T19:24:15.257Z,0.70
2023-03-11T19:27:17.875Z,0.40
2023-03-11T19:30:20.915Z,0.50
2023-03-11T19:33:24.373Z,0.70
2023-03-11T19:36:27.672Z,0.60
2023-03-11T19:39:30.201Z,0.60
2023-03-11T19:42:33.771Z,0.50
2023-03-11T19:45:36.356Z,0.45
2023-03-11T19:48:38.908Z,0.60
2023-03-11T19:51:49.561Z,0.60
2023-03-11T19:54:52.809Z,0.60
2023-03-11T19:57:55.312Z,0.57
2023-03-11T20:00:58.602Z,0.65
2023-03-11T20:04:01.011Z,0.70
2023-03-11T20:07:03.523Z,0.70
2023-03-11T20:10:06.409Z,0.63
2023-03-11T20:13:09.504Z,0.80
2023-03-11T20:16:16.150Z,0.85
2023-03-11T20:19:20.520Z,0.60
2023-03-11T20:22:23.130Z,0.70
2023-03-11T20:25:26.179Z,0.70
2023-03-11T20:28:28.772Z,0.50
2023-03-11T20:31:31.788Z,0.50
2023-03-11T20:34:35.475Z,0.63
2023-03-11T20:37:38.050Z,0.80
2023-03-11T20:40:40.753Z,0.70
2023-03-11T20:43:43.700Z,0.47
2023-03-11T20:46:46.353Z,0.70
2023-03-11T20:49:48.947Z,0.90
2023-03-11T20:52:51.338Z,0.60
2023-03-11T20:55:54.013Z,0.60
2023-03-11T20:58:59.293Z,0.60
2023-03-11T21:02:02.306Z,0.57
2023-03-11T21:05:06.144Z,0.50
2023-03-11T21:08:08.929Z,0.70
2023-03-11T21:11:11.923Z,1.03
2023-03-11T21:14:18.553Z,0.50
2023-03-11T21:17:21.086Z,0.50
2023-03-11T21:20:23.747Z,0.68
2023-03-11T21:23:26.466Z,0.60
2023-03-11T21:26:29.005Z,0.50
2023-03-11T21:29:31.555Z,0.57
2023-03-11T21:32:34.021Z,0.80
2023-03-11T21:35:36.707Z,0.90
2023-03-11T21:38:42.395Z,0.70
2023-03-11T21:41:44.881Z,0.50
2023-03-11T21:44:47.311Z,0.75
2023-03-11T21:47:49.862Z,0.57
2023-03-11T21:50:52.685Z,0.60
2023-03-11T21:53:55.133Z,0.97
2023-03-11T21:56:57.795Z,0.60
2023-03-11T22:00:00.257Z,0.95
2023-03-11T22:03:02.625Z,0.85
2023-03-11T22:06:08.169Z,0.77
2023-03-11T22:09:10.625Z,0.73
2023-03-11T22:12:13.017Z,0.80
2023-03-11T22:15:15.605Z,0.85
2023-03-11T22:18:18.186Z,0.75
2023-03-11T22:21:20.999Z,0.80
2023-03-11T22:24:23.487Z,0.80
2023-03-11T22:27:25.807Z,0.80
2023-03-11T22:30:28.189Z,0.60
2023-03-11T22:33:30.502Z,0.60
2023-03-11T22:36:32.880Z,0.70
2023-03-11T22:39:35.278Z,0.80
2023-03-11T22:42:37.741Z,0.60
2023-03-11T22:45:40.299Z,0.70
2023-03-11T22:48:42.821Z,0.60
2023-03-11T22:51:45.222Z,0.70
2023-03-11T22:54:48.014Z,0.80
2023-03-11T22:57:50.342Z,0.60
2023-03-11T23:00:52.753Z,0.57
2023-03-11T23:03:55.143Z,0.65
2023-03-11T23:06:57.520Z,0.50
2023-03-11T23:09:59.912Z,0.60
2023-03-11T23:13:02.332Z,0.67
2023-03-11T23:16:10.660Z,0.50
2023-03-11T23:19:13.561Z,0.65
2023-03-11T23:22:15.915Z,0.75
2023-03-11T23:25:18.490Z,0.70
2023-03-11T23:28:20.939Z,0.43
2023-03-11T23:31:25.134Z,0.60
2023-03-11T23:34:27.575Z,0.50
2023-03-11T23:37:30.030Z,0.70
2023-03-11T23:40:32.404Z,0.60
2023-03-11T23:43:34.800Z,0.63
2023-03-11T23:46:37.235Z,0.93
2023-03-11T23:49:39.643Z,0.60
2023-03-11T23:52:42.198Z,0.50
2023-03-11T23:55:44.811Z,0.70
2023-03-11T23:58:47.425Z,0.70
